sensor_id;sensor_type;location;lat;lon;timestamp;P1;durP1;ratioP1;P2;durP2;ratioP2
6089;SDS011;3073;42.660;23.316;2022-11-15T00:01:14;73.00;;;35.87;;
6089;SDS011;3073;42.660;23.316;2022-11-15T00:03:43;83.93;;;38.30;;
6089;SDS011;3073;42.660;23.316;2022-11-15T00:06:12;76.10;;;37.73;;
6089;SDS011;3073;42.660;23.316;2022-11-15T00:08:39;77.73;;;34.57;;
6089;SDS011;3073;42.660;23.316;2022-11-15T00:11:06;70.27;;;33.87;;
6089;SDS011;3073;42.660;23.316;2022-11-15T00:13:34;73.93;;;36.23;;
6089;SDS011;3073;42.660;23.316;2022-11-15T00:16:01;59.67;;;32.00;;
6089;SDS011;3073;42.660;23.316;2022-11-15T00:18:29;68.43;;;33.77;;
6089;SDS011;3073;42.660;23.316;2022-11-15T00:21:02;65.23;;;31.77;;
6089;SDS011;3073;42.660;23.316;2022-11-15T00:23:32;77.17;;;34.07;;
6089;SDS011;3073;42.660;23.316;2022-11-15T00:25:59;69.33;;;34.20;;
6089;SDS011;3073;42.660;23.316;2022-11-15T00:28:26;72.53;;;36.17;;
6089;SDS011;3073;42.660;23.316;2022-11-15T00:30:53;78.70;;;34.63;;
6089;SDS011;3073;42.660;23.316;2022-11-15T00:33:25;68.83;;;33.33;;
6089;SDS011;3073;42.660;23.316;2022-11-15T00:35:52;71.83;;;34.23;;
6089;SDS011;3073;42.660;23.316;2022-11-15T00:38:19;80.47;;;35.77;;
6089;SDS011;3073;42.660;23.316;2022-11-15T00:40:47;72.40;;;34.33;;
6089;SDS011;3073;42.660;23.316;2022-11-15T00:43:14;68.53;;;34.23;;
6089;SDS011;3073;42.660;23.316;2022-11-15T00:45:44;71.83;;;35.33;;
6089;SDS011;3073;42.660;23.316;2022-11-15T00:48:11;73.63;;;32.80;;
6089;SDS011;3073;42.660;23.316;2022-11-15T00:50:38;59.90;;;31.23;;
6089;SDS011;3073;42.660;23.316;2022-11-15T00:53:04;68.83;;;33.63;;
6089;SDS011;3073;42.660;23.316;2022-11-15T00:55:31;64.13;;;30.47;;
6089;SDS011;3073;42.660;23.316;2022-11-15T00:57:59;68.80;;;35.77;;
6089;SDS011;3073;42.660;23.316;2022-11-15T01:00:27;72.53;;;35.73;;
6089;SDS011;3073;42.660;23.316;2022-11-15T01:02:54;72.03;;;33.53;;
6089;SDS011;3073;42.660;23.316;2022-11-15T01:05:21;69.93;;;33.47;;
6089;SDS011;3073;42.660;23.316;2022-11-15T01:07:50;71.93;;;35.53;;
6089;SDS011;3073;42.660;23.316;2022-11-15T01:10:17;77.77;;;37.33;;
6089;SDS011;3073;42.660;23.316;2022-11-15T01:12:50;68.37;;;32.80;;
6089;SDS011;3073;42.660;23.316;2022-11-15T01:15:18;73.70;;;34.20;;
6089;SDS011;3073;42.660;23.316;2022-11-15T01:17:45;66.03;;;33.97;;
6089;SDS011;3073;42.660;23.316;2022-11-15T01:20:13;78.80;;;37.47;;
6089;SDS011;3073;42.660;23.316;2022-11-15T01:22:43;88.70;;;39.07;;
6089;SDS011;3073;42.660;23.316;2022-11-15T01:25:10;84.20;;;36.60;;
6089;SDS011;3073;42.660;23.316;2022-11-15T01:27:37;73.63;;;36.20;;
6089;SDS011;3073;42.660;23.316;2022-11-15T01:30:04;75.33;;;37.83;;
6089;SDS011;3073;42.660;23.316;2022-11-15T01:32:34;81.87;;;37.47;;
6089;SDS011;3073;42.660;23.316;2022-11-15T01:35:01;78.87;;;37.30;;
6089;SDS011;3073;42.660;23.316;2022-11-15T01:37:28;71.70;;;35.00;;
6089;SDS011;3073;42.660;23.316;2022-11-15T01:39:55;74.67;;;36.70;;
6089;SDS011;3073;42.660;23.316;2022-11-15T01:42:22;67.63;;;34.47;;
6089;SDS011;3073;42.660;23.316;2022-11-15T01:44:49;69.17;;;34.67;;
6089;SDS011;3073;42.660;23.316;2022-11-15T01:47:19;67.97;;;33.77;;
6089;SDS011;3073;42.660;23.316;2022-11-15T01:49:51;75.50;;;35.23;;
6089;SDS011;3073;42.660;23.316;2022-11-15T01:52:25;72.20;;;33.67;;
6089;SDS011;3073;42.660;23.316;2022-11-15T01:54:56;63.13;;;32.43;;
6089;SDS011;3073;42.660;23.316;2022-11-15T01:57:28;68.97;;;32.70;;
6089;SDS011;3073;42.660;23.316;2022-11-15T01:59:56;76.27;;;33.90;;
6089;SDS011;3073;42.660;23.316;2022-11-15T02:02:24;66.83;;;32.60;;
6089;SDS011;3073;42.660;23.316;2022-11-15T02:04:53;64.33;;;30.37;;
6089;SDS011;3073;42.660;23.316;2022-11-15T02:07:21;58.77;;;31.23;;
6089;SDS011;3073;42.660;23.316;2022-11-15T02:09:48;61.63;;;32.30;;
6089;SDS011;3073;42.660;23.316;2022-11-15T02:12:17;75.17;;;32.23;;
6089;SDS011;3073;42.660;23.316;2022-11-15T02:14:48;71.67;;;33.17;;
6089;SDS011;3073;42.660;23.316;2022-11-15T02:17:22;60.70;;;32.27;;
6089;SDS011;3073;42.660;23.316;2022-11-15T02:23:11;60.33;;;33.53;;
6089;SDS011;3073;42.660;23.316;2022-11-15T02:25:57;64.70;;;30.27;;
6089;SDS011;3073;42.660;23.316;2022-11-15T02:28:48;62.97;;;30.30;;
6089;SDS011;3073;42.660;23.316;2022-11-15T02:31:24;60.13;;;30.57;;
6089;SDS011;3073;42.660;23.316;2022-11-15T02:33:59;81.10;;;33.77;;
6089;SDS011;3073;42.660;23.316;2022-11-15T02:36:35;51.63;;;29.00;;
6089;SDS011;3073;42.660;23.316;2022-11-15T02:39:09;61.50;;;30.17;;
6089;SDS011;3073;42.660;23.316;2022-11-15T02:41:41;62.27;;;30.90;;
6089;SDS011;3073;42.660;23.316;2022-11-15T02:44:15;62.47;;;29.77;;
6089;SDS011;3073;42.660;23.316;2022-11-15T02:46:49;61.30;;;33.07;;
6089;SDS011;3073;42.660;23.316;2022-11-15T02:49:36;59.90;;;31.13;;
6089;SDS011;3073;42.660;23.316;2022-11-15T02:52:06;60.67;;;31.23;;
6089;SDS011;3073;42.660;23.316;2022-11-15T02:54:33;57.60;;;29.20;;
6089;SDS011;3073;42.660;23.316;2022-11-15T02:57:01;72.93;;;34.30;;
6089;SDS011;3073;42.660;23.316;2022-11-15T03:02:34;65.07;;;32.50;;
6089;SDS011;3073;42.660;23.316;2022-11-15T03:05:12;62.60;;;31.30;;
6089;SDS011;3073;42.660;23.316;2022-11-15T03:07:49;68.67;;;32.97;;
6089;SDS011;3073;42.660;23.316;2022-11-15T03:10:21;69.60;;;32.87;;
6089;SDS011;3073;42.660;23.316;2022-11-15T03:12:54;81.70;;;32.67;;
6089;SDS011;3073;42.660;23.316;2022-11-15T03:15:26;58.40;;;29.63;;
6089;SDS011;3073;42.660;23.316;2022-11-15T03:17:58;67.87;;;31.00;;
6089;SDS011;3073;42.660;23.316;2022-11-15T03:20:28;61.50;;;30.97;;
6089;SDS011;3073;42.660;23.316;2022-11-15T03:23:00;62.90;;;30.67;;
6089;SDS011;3073;42.660;23.316;2022-11-15T03:25:32;69.87;;;31.20;;
6089;SDS011;3073;42.660;23.316;2022-11-15T03:28:04;53.47;;;28.43;;
6089;SDS011;3073;42.660;23.316;2022-11-15T03:30:33;57.97;;;30.97;;
6089;SDS011;3073;42.660;23.316;2022-11-15T03:33:03;56.97;;;30.07;;
6089;SDS011;3073;42.660;23.316;2022-11-15T03:35:33;63.63;;;30.93;;
6089;SDS011;3073;42.660;23.316;2022-11-15T03:38:05;64.43;;;30.70;;
6089;SDS011;3073;42.660;23.316;2022-11-15T03:40:39;59.07;;;30.50;;
6089;SDS011;3073;42.660;23.316;2022-11-15T03:43:09;55.77;;;31.23;;
6089;SDS011;3073;42.660;23.316;2022-11-15T03:45:51;65.47;;;31.07;;
6089;SDS011;3073;42.660;23.316;2022-11-15T03:48:27;63.10;;;32.47;;
6089;SDS011;3073;42.660;23.316;2022-11-15T03:50:59;64.33;;;30.10;;
6089;SDS011;3073;42.660;23.316;2022-11-15T03:53:27;62.83;;;30.40;;
6089;SDS011;3073;42.660;23.316;2022-11-15T03:55:55;61.37;;;33.77;;
6089;SDS011;3073;42.660;23.316;2022-11-15T03:58:22;62.70;;;31.67;;
6089;SDS011;3073;42.660;23.316;2022-11-15T04:00:49;70.47;;;33.00;;
6089;SDS011;3073;42.660;23.316;2022-11-15T04:03:16;76.63;;;34.60;;
6089;SDS011;3073;42.660;23.316;2022-11-15T04:05:44;76.70;;;33.03;;
6089;SDS011;3073;42.660;23.316;2022-11-15T04:08:11;71.53;;;33.67;;
6089;SDS011;3073;42.660;23.316;2022-11-15T04:10:38;72.33;;;33.97;;
6089;SDS011;3073;42.660;23.316;2022-11-15T04:13:05;73.53;;;34.30;;
6089;SDS011;3073;42.660;23.316;2022-11-15T04:15:32;85.80;;;34.33;;
6089;SDS011;3073;42.660;23.316;2022-11-15T04:18:00;71.63;;;34.10;;
6089;SDS011;3073;42.660;23.316;2022-11-15T04:20:29;103.50;;;36.63;;
6089;SDS011;3073;42.660;23.316;2022-11-15T04:23:16;83.53;;;36.10;;
6089;SDS011;3073;42.660;23.316;2022-11-15T04:26:02;98.10;;;36.27;;
6089;SDS011;3073;42.660;23.316;2022-11-15T04:28:32;95.93;;;35.27;;
6089;SDS011;3073;42.660;23.316;2022-11-15T04:30:59;135.67;;;34.70;;
6089;SDS011;3073;42.660;23.316;2022-11-15T04:33:26;139.90;;;36.57;;
6089;SDS011;3073;42.660;23.316;2022-11-15T04:35:53;125.60;;;38.83;;
6089;SDS011;3073;42.660;23.316;2022-11-15T04:38:39;183.33;;;37.93;;
6089;SDS011;3073;42.660;23.316;2022-11-15T04:41:06;151.90;;;37.60;;
6089;SDS011;3073;42.660;23.316;2022-11-15T04:43:33;160.97;;;37.30;;
6089;SDS011;3073;42.660;23.316;2022-11-15T04:46:00;188.47;;;40.47;;
6089;SDS011;3073;42.660;23.316;2022-11-15T04:48:27;221.63;;;39.07;;
6089;SDS011;3073;42.660;23.316;2022-11-15T04:50:53;186.73;;;39.70;;
6089;SDS011;3073;42.660;23.316;2022-11-15T04:53:20;303.60;;;40.13;;
6089;SDS011;3073;42.660;23.316;2022-11-15T04:55:49;236.13;;;37.43;;
6089;SDS011;3073;42.660;23.316;2022-11-15T04:58:15;163.67;;;38.23;;
6089;SDS011;3073;42.660;23.316;2022-11-15T05:00:42;209.33;;;43.03;;
6089;SDS011;3073;42.660;23.316;2022-11-15T05:03:09;212.47;;;39.60;;
6089;SDS011;3073;42.660;23.316;2022-11-15T05:06:05;187.40;;;43.13;;
6089;SDS011;3073;42.660;23.316;2022-11-15T05:08:32;192.47;;;41.17;;
6089;SDS011;3073;42.660;23.316;2022-11-15T05:11:01;440.07;;;49.67;;
6089;SDS011;3073;42.660;23.316;2022-11-15T05:13:28;381.70;;;48.30;;
6089;SDS011;3073;42.660;23.316;2022-11-15T05:15:56;183.77;;;46.93;;
6089;SDS011;3073;42.660;23.316;2022-11-15T05:18:23;318.47;;;46.00;;
6089;SDS011;3073;42.660;23.316;2022-11-15T05:20:49;294.17;;;47.43;;
6089;SDS011;3073;42.660;23.316;2022-11-15T05:23:16;391.07;;;44.73;;
6089;SDS011;3073;42.660;23.316;2022-11-15T05:25:43;224.73;;;47.97;;
6089;SDS011;3073;42.660;23.316;2022-11-15T05:28:12;126.73;;;52.17;;
6089;SDS011;3073;42.660;23.316;2022-11-15T05:30:39;115.57;;;46.70;;
6089;SDS011;3073;42.660;23.316;2022-11-15T05:33:06;131.13;;;49.40;;
6089;SDS011;3073;42.660;23.316;2022-11-15T05:35:33;122.70;;;50.93;;
6089;SDS011;3073;42.660;23.316;2022-11-15T05:38:05;93.47;;;43.83;;
6089;SDS011;3073;42.660;23.316;2022-11-15T05:40:32;86.30;;;41.37;;
6089;SDS011;3073;42.660;23.316;2022-11-15T05:43:00;83.93;;;38.27;;
6089;SDS011;3073;42.660;23.316;2022-11-15T05:45:32;76.53;;;31.77;;
6089;SDS011;3073;42.660;23.316;2022-11-15T05:48:00;62.23;;;28.57;;
6089;SDS011;3073;42.660;23.316;2022-11-15T05:50:33;61.57;;;28.17;;
6089;SDS011;3073;42.660;23.316;2022-11-15T05:53:00;63.70;;;26.67;;
6089;SDS011;3073;42.660;23.316;2022-11-15T05:55:28;64.13;;;26.80;;
6089;SDS011;3073;42.660;23.316;2022-11-15T05:57:54;61.93;;;26.17;;
6089;SDS011;3073;42.660;23.316;2022-11-15T06:00:21;69.77;;;27.57;;
6089;SDS011;3073;42.660;23.316;2022-11-15T06:02:50;60.83;;;26.63;;
6089;SDS011;3073;42.660;23.316;2022-11-15T06:05:17;70.77;;;27.53;;
6089;SDS011;3073;42.660;23.316;2022-11-15T06:07:44;74.97;;;28.40;;
6089;SDS011;3073;42.660;23.316;2022-11-15T06:10:12;62.50;;;29.13;;
6089;SDS011;3073;42.660;23.316;2022-11-15T06:12:40;72.90;;;28.27;;
6089;SDS011;3073;42.660;23.316;2022-11-15T06:15:07;80.17;;;31.23;;
6089;SDS011;3073;42.660;23.316;2022-11-15T06:17:35;114.23;;;36.07;;
6089;SDS011;3073;42.660;23.316;2022-11-15T06:20:05;135.57;;;36.30;;
6089;SDS011;3073;42.660;23.316;2022-11-15T06:22:33;132.57;;;35.67;;
6089;SDS011;3073;42.660;23.316;2022-11-15T06:24:59;152.13;;;37.67;;
6089;SDS011;3073;42.660;23.316;2022-11-15T06:27:27;107.80;;;38.00;;
6089;SDS011;3073;42.660;23.316;2022-11-15T06:29:53;102.20;;;34.80;;
6089;SDS011;3073;42.660;23.316;2022-11-15T06:32:22;131.63;;;41.57;;
6089;SDS011;3073;42.660;23.316;2022-11-15T06:34:48;118.03;;;38.27;;
6089;SDS011;3073;42.660;23.316;2022-11-15T06:37:17;125.40;;;36.60;;
6089;SDS011;3073;42.660;23.316;2022-11-15T06:39:44;131.77;;;39.07;;
6089;SDS011;3073;42.660;23.316;2022-11-15T06:42:11;125.47;;;41.37;;
6089;SDS011;3073;42.660;23.316;2022-11-15T06:44:38;118.90;;;41.07;;
6089;SDS011;3073;42.660;23.316;2022-11-15T06:47:05;133.93;;;44.10;;
6089;SDS011;3073;42.660;23.316;2022-11-15T06:49:32;141.87;;;45.77;;
6089;SDS011;3073;42.660;23.316;2022-11-15T06:51:59;147.50;;;47.13;;
6089;SDS011;3073;42.660;23.316;2022-11-15T06:54:29;141.13;;;47.33;;
6089;SDS011;3073;42.660;23.316;2022-11-15T06:56:55;164.33;;;48.00;;
6089;SDS011;3073;42.660;23.316;2022-11-15T06:59:22;170.00;;;50.60;;
6089;SDS011;3073;42.660;23.316;2022-11-15T07:01:49;149.53;;;44.77;;
6089;SDS011;3073;42.660;23.316;2022-11-15T07:04:16;157.57;;;47.50;;
6089;SDS011;3073;42.660;23.316;2022-11-15T07:06:45;135.37;;;45.40;;
6089;SDS011;3073;42.660;23.316;2022-11-15T07:09:13;167.40;;;48.27;;
6089;SDS011;3073;42.660;23.316;2022-11-15T07:11:42;167.20;;;44.23;;
6089;SDS011;3073;42.660;23.316;2022-11-15T07:14:09;164.00;;;45.10;;
6089;SDS011;3073;42.660;23.316;2022-11-15T07:16:36;131.13;;;43.27;;
6089;SDS011;3073;42.660;23.316;2022-11-15T07:19:03;128.73;;;43.00;;
6089;SDS011;3073;42.660;23.316;2022-11-15T07:21:30;119.37;;;42.17;;
6089;SDS011;3073;42.660;23.316;2022-11-15T07:23:57;120.07;;;42.00;;
6089;SDS011;3073;42.660;23.316;2022-11-15T07:26:24;132.80;;;44.40;;
6089;SDS011;3073;42.660;23.316;2022-11-15T07:28:52;122.90;;;45.30;;
6089;SDS011;3073;42.660;23.316;2022-11-15T07:31:20;124.00;;;44.30;;
6089;SDS011;3073;42.660;23.316;2022-11-15T07:33:47;219.17;;;46.40;;
6089;SDS011;3073;42.660;23.316;2022-11-15T07:36:15;133.73;;;44.50;;
6089;SDS011;3073;42.660;23.316;2022-11-15T07:38:41;163.50;;;45.70;;
6089;SDS011;3073;42.660;23.316;2022-11-15T07:41:10;137.27;;;44.97;;
6089;SDS011;3073;42.660;23.316;2022-11-15T07:43:37;157.53;;;48.60;;
6089;SDS011;3073;42.660;23.316;2022-11-15T07:46:05;135.57;;;46.90;;
6089;SDS011;3073;42.660;23.316;2022-11-15T07:48:34;132.40;;;44.00;;
6089;SDS011;3073;42.660;23.316;2022-11-15T07:51:01;153.20;;;48.17;;
6089;SDS011;3073;42.660;23.316;2022-11-15T07:53:28;150.40;;;48.73;;
6089;SDS011;3073;42.660;23.316;2022-11-15T07:55:55;129.70;;;44.63;;
6089;SDS011;3073;42.660;23.316;2022-11-15T07:58:22;119.20;;;43.67;;
6089;SDS011;3073;42.660;23.316;2022-11-15T08:00:49;108.40;;;41.33;;
6089;SDS011;3073;42.660;23.316;2022-11-15T08:03:17;108.00;;;43.37;;
6089;SDS011;3073;42.660;23.316;2022-11-15T08:05:49;127.43;;;44.77;;
6089;SDS011;3073;42.660;23.316;2022-11-15T08:08:17;136.50;;;48.90;;
6089;SDS011;3073;42.660;23.316;2022-11-15T08:10:44;150.83;;;50.77;;
6089;SDS011;3073;42.660;23.316;2022-11-15T08:13:11;190.33;;;52.57;;
6089;SDS011;3073;42.660;23.316;2022-11-15T08:15:39;169.10;;;53.67;;
6089;SDS011;3073;42.660;23.316;2022-11-15T08:18:09;180.23;;;58.23;;
6089;SDS011;3073;42.660;23.316;2022-11-15T08:20:39;230.97;;;77.33;;
6089;SDS011;3073;42.660;23.316;2022-11-15T08:23:06;157.00;;;57.43;;
6089;SDS011;3073;42.660;23.316;2022-11-15T08:25:34;168.67;;;56.30;;
6089;SDS011;3073;42.660;23.316;2022-11-15T08:28:02;172.37;;;59.13;;
6089;SDS011;3073;42.660;23.316;2022-11-15T08:30:34;180.17;;;62.20;;
6089;SDS011;3073;42.660;23.316;2022-11-15T08:33:03;174.23;;;58.40;;
6089;SDS011;3073;42.660;23.316;2022-11-15T08:35:30;181.77;;;58.67;;
6089;SDS011;3073;42.660;23.316;2022-11-15T08:37:59;164.27;;;56.07;;
6089;SDS011;3073;42.660;23.316;2022-11-15T08:40:26;165.87;;;56.37;;
6089;SDS011;3073;42.660;23.316;2022-11-15T08:42:53;159.10;;;57.60;;
6089;SDS011;3073;42.660;23.316;2022-11-15T08:45:19;174.57;;;60.20;;
6089;SDS011;3073;42.660;23.316;2022-11-15T08:47:47;175.90;;;59.83;;
6089;SDS011;3073;42.660;23.316;2022-11-15T08:50:15;152.47;;;57.70;;
6089;SDS011;3073;42.660;23.316;2022-11-15T08:52:42;163.47;;;61.30;;
6089;SDS011;3073;42.660;23.316;2022-11-15T08:55:10;177.63;;;58.93;;
6089;SDS011;3073;42.660;23.316;2022-11-15T08:57:37;152.80;;;56.40;;
6089;SDS011;3073;42.660;23.316;2022-11-15T09:00:06;158.13;;;56.90;;
6089;SDS011;3073;42.660;23.316;2022-11-15T09:02:34;165.63;;;57.60;;
6089;SDS011;3073;42.660;23.316;2022-11-15T09:05:01;155.57;;;60.00;;
6089;SDS011;3073;42.660;23.316;2022-11-15T09:07:27;178.97;;;61.80;;
6089;SDS011;3073;42.660;23.316;2022-11-15T09:09:55;171.70;;;62.13;;
6089;SDS011;3073;42.660;23.316;2022-11-15T09:12:24;174.10;;;59.37;;
6089;SDS011;3073;42.660;23.316;2022-11-15T09:14:52;160.43;;;57.00;;
6089;SDS011;3073;42.660;23.316;2022-11-15T09:17:19;167.77;;;56.40;;
6089;SDS011;3073;42.660;23.316;2022-11-15T09:19:45;152.40;;;58.00;;
6089;SDS011;3073;42.660;23.316;2022-11-15T09:22:12;147.17;;;56.80;;
6089;SDS011;3073;42.660;23.316;2022-11-15T09:24:39;149.93;;;55.30;;
6089;SDS011;3073;42.660;23.316;2022-11-15T09:27:08;132.67;;;53.83;;
6089;SDS011;3073;42.660;23.316;2022-11-15T09:29:37;139.40;;;56.73;;
6089;SDS011;3073;42.660;23.316;2022-11-15T09:32:04;154.37;;;53.93;;
6089;SDS011;3073;42.660;23.316;2022-11-15T09:34:31;134.70;;;54.73;;
6089;SDS011;3073;42.660;23.316;2022-11-15T09:36:58;132.53;;;52.33;;
6089;SDS011;3073;42.660;23.316;2022-11-15T09:39:24;146.13;;;56.40;;
6089;SDS011;3073;42.660;23.316;2022-11-15T09:41:56;143.43;;;53.20;;
6089;SDS011;3073;42.660;23.316;2022-11-15T09:47:36;135.10;;;53.60;;
6089;SDS011;3073;42.660;23.316;2022-11-15T09:50:11;152.53;;;55.43;;
6089;SDS011;3073;42.660;23.316;2022-11-15T09:52:43;146.50;;;57.40;;
6089;SDS011;3073;42.660;23.316;2022-11-15T09:55:13;131.97;;;53.93;;
6089;SDS011;3073;42.660;23.316;2022-11-15T09:57:48;151.27;;;57.80;;
6089;SDS011;3073;42.660;23.316;2022-11-15T10:00:22;150.73;;;54.43;;
6089;SDS011;3073;42.660;23.316;2022-11-15T10:02:58;133.60;;;54.57;;
6089;SDS011;3073;42.660;23.316;2022-11-15T10:05:37;140.57;;;53.70;;
6089;SDS011;3073;42.660;23.316;2022-11-15T10:08:10;142.33;;;55.17;;
6089;SDS011;3073;42.660;23.316;2022-11-15T10:10:48;140.33;;;55.70;;
6089;SDS011;3073;42.660;23.316;2022-11-15T10:13:20;144.20;;;55.07;;
6089;SDS011;3073;42.660;23.316;2022-11-15T10:15:51;154.63;;;58.33;;
6089;SDS011;3073;42.660;23.316;2022-11-15T10:18:23;166.63;;;60.03;;
6089;SDS011;3073;42.660;23.316;2022-11-15T10:21:02;163.00;;;58.83;;
6089;SDS011;3073;42.660;23.316;2022-11-15T10:23:42;151.87;;;57.30;;
6089;SDS011;3073;42.660;23.316;2022-11-15T10:26:10;157.73;;;58.00;;
6089;SDS011;3073;42.660;23.316;2022-11-15T10:28:39;157.60;;;58.40;;
6089;SDS011;3073;42.660;23.316;2022-11-15T10:31:20;153.73;;;55.50;;
6089;SDS011;3073;42.660;23.316;2022-11-15T10:33:50;162.13;;;57.33;;
6089;SDS011;3073;42.660;23.316;2022-11-15T10:36:20;152.53;;;56.97;;
6089;SDS011;3073;42.660;23.316;2022-11-15T10:38:52;149.60;;;55.50;;
6089;SDS011;3073;42.660;23.316;2022-11-15T10:41:22;126.23;;;50.57;;
6089;SDS011;3073;42.660;23.316;2022-11-15T10:44:03;116.70;;;49.87;;
6089;SDS011;3073;42.660;23.316;2022-11-15T10:46:39;114.03;;;51.10;;
6089;SDS011;3073;42.660;23.316;2022-11-15T10:49:12;118.03;;;49.63;;
6089;SDS011;3073;42.660;23.316;2022-11-15T10:51:41;117.47;;;53.80;;
6089;SDS011;3073;42.660;23.316;2022-11-15T10:54:11;107.93;;;54.13;;
6089;SDS011;3073;42.660;23.316;2022-11-15T10:56:40;107.13;;;50.17;;
6089;SDS011;3073;42.660;23.316;2022-11-15T10:59:14;99.10;;;46.97;;
6089;SDS011;3073;42.660;23.316;2022-11-15T11:01:47;103.50;;;51.40;;
6089;SDS011;3073;42.660;23.316;2022-11-15T11:04:14;110.50;;;52.37;;
6089;SDS011;3073;42.660;23.316;2022-11-15T11:06:47;122.40;;;52.60;;
6089;SDS011;3073;42.660;23.316;2022-11-15T11:12:00;114.70;;;51.40;;
6089;SDS011;3073;42.660;23.316;2022-11-15T11:14:29;95.20;;;50.57;;
6089;SDS011;3073;42.660;23.316;2022-11-15T11:17:01;96.97;;;49.73;;
6089;SDS011;3073;42.660;23.316;2022-11-15T11:19:46;102.77;;;50.50;;
6089;SDS011;3073;42.660;23.316;2022-11-15T11:22:30;108.20;;;50.67;;
6089;SDS011;3073;42.660;23.316;2022-11-15T11:25:16;111.43;;;50.10;;
6089;SDS011;3073;42.660;23.316;2022-11-15T11:28:12;98.47;;;48.13;;
6089;SDS011;3073;42.660;23.316;2022-11-15T11:30:51;104.27;;;50.80;;
6089;SDS011;3073;42.660;23.316;2022-11-15T11:33:30;93.33;;;51.77;;
6089;SDS011;3073;42.660;23.316;2022-11-15T11:36:03;100.40;;;54.40;;
6089;SDS011;3073;42.660;23.316;2022-11-15T11:38:50;113.83;;;56.60;;
6089;SDS011;3073;42.660;23.316;2022-11-15T11:41:31;121.00;;;53.10;;
6089;SDS011;3073;42.660;23.316;2022-11-15T11:44:15;92.17;;;51.40;;
6089;SDS011;3073;42.660;23.316;2022-11-15T11:46:53;113.30;;;57.03;;
6089;SDS011;3073;42.660;23.316;2022-11-15T11:49:25;113.47;;;55.20;;
6089;SDS011;3073;42.660;23.316;2022-11-15T11:52:00;99.07;;;54.87;;
6089;SDS011;3073;42.660;23.316;2022-11-15T11:54:31;99.83;;;53.47;;
6089;SDS011;3073;42.660;23.316;2022-11-15T11:59:55;97.90;;;53.27;;
6089;SDS011;3073;42.660;23.316;2022-11-15T12:02:27;94.60;;;51.63;;
6089;SDS011;3073;42.660;23.316;2022-11-15T12:05:01;93.47;;;48.80;;
6089;SDS011;3073;42.660;23.316;2022-11-15T12:07:38;110.63;;;49.17;;
6089;SDS011;3073;42.660;23.316;2022-11-15T12:10:12;93.97;;;51.77;;
6089;SDS011;3073;42.660;23.316;2022-11-15T12:12:49;86.50;;;47.73;;
6089;SDS011;3073;42.660;23.316;2022-11-15T12:15:22;97.27;;;48.90;;
6089;SDS011;3073;42.660;23.316;2022-11-15T12:17:52;106.27;;;50.60;;
6089;SDS011;3073;42.660;23.316;2022-11-15T12:20:23;97.27;;;51.20;;
6089;SDS011;3073;42.660;23.316;2022-11-15T12:22:54;96.77;;;47.70;;
6089;SDS011;3073;42.660;23.316;2022-11-15T12:25:27;100.60;;;49.33;;
6089;SDS011;3073;42.660;23.316;2022-11-15T12:27:57;97.47;;;47.30;;
6089;SDS011;3073;42.660;23.316;2022-11-15T12:30:41;96.90;;;48.63;;
6089;SDS011;3073;42.660;23.316;2022-11-15T12:33:29;99.33;;;50.60;;
6089;SDS011;3073;42.660;23.316;2022-11-15T12:36:00;101.03;;;49.70;;
6089;SDS011;3073;42.660;23.316;2022-11-15T12:41:22;89.40;;;47.47;;
6089;SDS011;3073;42.660;23.316;2022-11-15T12:43:50;92.50;;;50.10;;
6089;SDS011;3073;42.660;23.316;2022-11-15T12:46:21;86.90;;;48.93;;
6089;SDS011;3073;42.660;23.316;2022-11-15T12:49:09;102.53;;;50.77;;
6089;SDS011;3073;42.660;23.316;2022-11-15T12:54:50;100.37;;;51.50;;
6089;SDS011;3073;42.660;23.316;2022-11-15T12:57:26;100.67;;;50.37;;
6089;SDS011;3073;42.660;23.316;2022-11-15T12:59:56;111.87;;;52.10;;
6089;SDS011;3073;42.660;23.316;2022-11-15T13:02:27;99.03;;;49.30;;
6089;SDS011;3073;42.660;23.316;2022-11-15T13:07:58;92.97;;;49.03;;
6089;SDS011;3073;42.660;23.316;2022-11-15T13:10:29;94.40;;;47.20;;
6089;SDS011;3073;42.660;23.316;2022-11-15T13:12:58;79.57;;;44.53;;
6089;SDS011;3073;42.660;23.316;2022-11-15T13:18:32;83.90;;;42.67;;
6089;SDS011;3073;42.660;23.316;2022-11-15T13:21:02;100.13;;;48.43;;
6089;SDS011;3073;42.660;23.316;2022-11-15T13:23:54;84.23;;;45.20;;
6089;SDS011;3073;42.660;23.316;2022-11-15T13:26:21;80.20;;;43.63;;
6089;SDS011;3073;42.660;23.316;2022-11-15T13:28:49;86.23;;;44.40;;
6089;SDS011;3073;42.660;23.316;2022-11-15T13:31:29;77.47;;;45.50;;
6089;SDS011;3073;42.660;23.316;2022-11-15T13:34:02;79.97;;;44.27;;
6089;SDS011;3073;42.660;23.316;2022-11-15T13:36:40;90.93;;;48.07;;
6089;SDS011;3073;42.660;23.316;2022-11-15T13:39:14;95.07;;;49.13;;
6089;SDS011;3073;42.660;23.316;2022-11-15T13:41:51;87.00;;;48.37;;
6089;SDS011;3073;42.660;23.316;2022-11-15T13:44:19;92.20;;;47.10;;
6089;SDS011;3073;42.660;23.316;2022-11-15T13:46:47;77.73;;;45.50;;
6089;SDS011;3073;42.660;23.316;2022-11-15T13:49:14;83.97;;;45.07;;
6089;SDS011;3073;42.660;23.316;2022-11-15T13:51:42;80.80;;;44.80;;
6089;SDS011;3073;42.660;23.316;2022-11-15T13:54:16;84.93;;;45.40;;
6089;SDS011;3073;42.660;23.316;2022-11-15T13:56:47;101.60;;;47.60;;
6089;SDS011;3073;42.660;23.316;2022-11-15T13:59:18;87.10;;;46.67;;
6089;SDS011;3073;42.660;23.316;2022-11-15T14:01:51;86.67;;;46.20;;
6089;SDS011;3073;42.660;23.316;2022-11-15T14:04:21;91.63;;;47.97;;
6089;SDS011;3073;42.660;23.316;2022-11-15T14:06:51;88.20;;;44.87;;
6089;SDS011;3073;42.660;23.316;2022-11-15T14:09:34;96.20;;;47.90;;
6089;SDS011;3073;42.660;23.316;2022-11-15T14:12:20;92.40;;;47.87;;
6089;SDS011;3073;42.660;23.316;2022-11-15T14:14:55;89.50;;;46.93;;
6089;SDS011;3073;42.660;23.316;2022-11-15T14:17:32;93.13;;;45.33;;
6089;SDS011;3073;42.660;23.316;2022-11-15T14:20:01;96.17;;;45.13;;
6089;SDS011;3073;42.660;23.316;2022-11-15T14:22:51;93.57;;;45.00;;
6089;SDS011;3073;42.660;23.316;2022-11-15T14:25:20;103.90;;;47.37;;
6089;SDS011;3073;42.660;23.316;2022-11-15T14:30:34;103.70;;;49.40;;
6089;SDS011;3073;42.660;23.316;2022-11-15T14:33:11;117.97;;;49.10;;
6089;SDS011;3073;42.660;23.316;2022-11-15T14:35:45;103.20;;;47.70;;
6089;SDS011;3073;42.660;23.316;2022-11-15T14:38:12;98.13;;;48.30;;
6089;SDS011;3073;42.660;23.316;2022-11-15T14:40:41;103.00;;;50.20;;
6089;SDS011;3073;42.660;23.316;2022-11-15T14:43:08;100.43;;;49.67;;
6089;SDS011;3073;42.660;23.316;2022-11-15T14:45:36;102.57;;;51.70;;
6089;SDS011;3073;42.660;23.316;2022-11-15T14:48:04;109.70;;;49.87;;
6089;SDS011;3073;42.660;23.316;2022-11-15T14:50:31;118.17;;;50.70;;
6089;SDS011;3073;42.660;23.316;2022-11-15T14:53:00;111.67;;;51.00;;
6089;SDS011;3073;42.660;23.316;2022-11-15T14:55:28;114.60;;;52.47;;
6089;SDS011;3073;42.660;23.316;2022-11-15T14:57:59;110.67;;;53.73;;
6089;SDS011;3073;42.660;23.316;2022-11-15T15:00:27;106.43;;;51.60;;
6089;SDS011;3073;42.660;23.316;2022-11-15T15:02:54;121.60;;;54.53;;
6089;SDS011;3073;42.660;23.316;2022-11-15T15:05:22;115.93;;;52.90;;
6089;SDS011;3073;42.660;23.316;2022-11-15T15:07:50;124.67;;;56.67;;
6089;SDS011;3073;42.660;23.316;2022-11-15T15:10:19;126.60;;;55.03;;
6089;SDS011;3073;42.660;23.316;2022-11-15T15:12:46;118.77;;;54.10;;
6089;SDS011;3073;42.660;23.316;2022-11-15T15:15:15;121.93;;;55.50;;
6089;SDS011;3073;42.660;23.316;2022-11-15T15:17:45;118.10;;;54.47;;